Flight Number: EUR2008 Duration: 0:30
Departure: Innsbruck (LOWI) at 21:10 Distance: 68 Nm
Arrival: Munich Int'l (EDDM) at 21:40 Equipment: B1900D

Weather Information
Innsbruck-Flughafen, Austria (LOWI) 47-16N 011-21E 593M May 22, 2018 - 02:50 PM EDT / 2018.05.22 1850 UTC
Wind: Variable at 8 MPH (7 KT):0
Visibility: greater than 7 mile(s):0
Sky conditions: mostly cloudy Temperature: 66 F (19 C) Dew Point: 44 F (7 C) Relative Humidity: 45% Pressure (altimeter): 29.91 in. Hg (1013 hPa)
ob: LOWI 221850Z VRB07KT 9999 FEW060 BKN090 19/07 Q1013 NOSIG cycle: 19
Sunrise: 03:33 Sunset: 18:48 (UTC)

Munchen, Germany (EDDM) 48-21N 011-47E May 22, 2018 - 02:50 PM EDT / 2018.05.22 1850 UTC
Wind: from the SW (230 degrees) at 6 MPH (5 KT) (direction variable):0
Visibility: greater than 7 mile(s):0
Sky conditions: mostly cloudy Weather: light rain showers; Towering cumulus clouds observed Temperature: 62 F (17 C) Dew Point: 53 F (12 C) Relative Humidity: 72% Pressure (altimeter): 29.91 in. Hg (1013 hPa)
ob: EDDM 221850Z 23005KT 190V320 9999 -SHRA FEW055TCU SCT085 BKN120 17/12 Q1013 TEMPO SHRA cycle: 19
Sunrise: 03:28 Sunset: 18:51 (UTC)

TAF:2018/05/22 18:27 TAF EDDM 221700Z 2218/2324 VRB03KT CAVOK PROB40 TEMPO 2218/2220 18015G25KT TSRA BKN040CB PROB30 TEMPO 2304/2310 SHRA SCT040TCU BECMG 2308/2310 05007KT PROB40 TEMPO 2314/2320 16015G25KT TSRA BKN040CB BECMG 2318/2320 VRB03KT

Previous Pireps for this route
Date Aircraft Flight time Fuel used Landing rate On time
2013-06-20B1900D0.451140Yes
2013-07-12B1900D00.38206-581No
2013-07-13B1900D00.42181-379No
2013-07-14B1900D00.46342-338No
2013-07-15B1900D00.56291-102Yes
2013-07-28B1900D00.39517-222Yes
2013-08-07B1900D00.32495-197No
2013-08-07B1900D00.28433-102No
2013-08-07B1900D00.29507-96No
2013-08-10B1900D00.31502-350No
2013-08-12B1900D00.29530-172No
2013-08-13B1900D00.40642-116No
2013-10-05B1900D00.36452-85Yes
2013-11-10B1900D0.45429-106No
2013-11-30B1900D0.45443-23Yes
2014-02-19B1900D00.37620-150No
2014-02-23B1900D00.38575-650No
2014-02-23B1900D00.48720-150No
2014-02-28B1900D00.35596-50No
2014-03-01B1900D00.38579-350No
2014-03-02B1900D0,365110No
2014-03-05B1900D00.41525-150No
2014-03-19B1900D00.51414-242No
2014-06-16B1900D01.00673-693No
2014-06-27B1900D0.3518000No
2014-08-28B1900D00.56369-113No
2014-09-15B1900D01.03335-199No
2014-09-27B1900D00.571588-89No
2014-10-01B1900D0.497000No
2014-11-10B1900D0.46376-148Yes
2014-12-21B1900D0.3000No
2015-02-06B1900D00.54-3075-371Charter
2015-04-09B757-2000.5030570Charter
2015-04-16B1900D00.39387-173No
2015-05-22B1900D00.41346-111Yes
2015-06-21B1900D0.49253-306Yes
2015-08-26B1900D0.43465-205Yes
2015-09-13B1900D00.30502-49Charter
2015-11-20B1900D0.50478-242Yes
2016-05-18B1900D0.30253-309Yes
2016-05-20B1900D0.30253-309Yes
2016-06-13B1900D00.49809-531Yes
2016-07-26B1900D00.37396-722Yes
2017-01-24B1900D0.34354-517No
(pireps marked green are flown by you)

Route map